Cedarville, Michigan
Current Conditions -  °F | °C
As of 8:39 PM on Friday 24 Oct 2014 (Local Time) from KMCD Reporting Station
Overcast Overcast  
Wind Chill: 51°   Ceiling: 1100
Heat Index: 51°   Visibility: 10mi
Dew Point: 49°   Wind: 10mph
Humidity: 94%   Direction: 240°WSW
Pressure: 29.9"   Gusts: NA
Location:  46°N, 84.36°W
Report Text: KMCD 250039Z AUTO 24009KT 10SM OVC011 11/10 A2990 RMK AO2 T01050096
Loading
Personal Weather Stations






























Interactive Weather Map
Tropical Storm Tracking
New forecast layout! Learn more

10-Day Weather Forecast

Advertisements
Track Severe Weather on mobile